sensor_id;sensor_type;location;lat;lon;timestamp;P1;durP1;ratioP1;P2;durP2;ratioP2
43710;SDS011;29309;42.682;23.372;2023-03-24T00:00:59;19.05;;;10.52;;
43710;SDS011;29309;42.682;23.372;2023-03-24T00:03:26;18.98;;;11.30;;
43710;SDS011;29309;42.682;23.372;2023-03-24T00:05:57;18.20;;;10.45;;
43710;SDS011;29309;42.682;23.372;2023-03-24T00:08:26;16.23;;;9.30;;
43710;SDS011;29309;42.682;23.372;2023-03-24T00:10:56;14.77;;;9.25;;
43710;SDS011;29309;42.682;23.372;2023-03-24T00:13:24;18.98;;;10.27;;
43710;SDS011;29309;42.682;23.372;2023-03-24T00:15:49;16.65;;;9.82;;
43710;SDS011;29309;42.682;23.372;2023-03-24T00:18:15;17.08;;;10.10;;
43710;SDS011;29309;42.682;23.372;2023-03-24T00:20:40;22.73;;;9.77;;
43710;SDS011;29309;42.682;23.372;2023-03-24T00:23:06;18.23;;;9.50;;
43710;SDS011;29309;42.682;23.372;2023-03-24T00:25:31;17.13;;;10.13;;
43710;SDS011;29309;42.682;23.372;2023-03-24T00:28:00;16.27;;;9.35;;
43710;SDS011;29309;42.682;23.372;2023-03-24T00:30:27;16.02;;;9.95;;
43710;SDS011;29309;42.682;23.372;2023-03-24T00:32:53;16.25;;;9.43;;
43710;SDS011;29309;42.682;23.372;2023-03-24T00:35:18;15.00;;;9.07;;
43710;SDS011;29309;42.682;23.372;2023-03-24T00:37:44;17.80;;;9.70;;
43710;SDS011;29309;42.682;23.372;2023-03-24T00:40:12;19.23;;;10.02;;
43710;SDS011;29309;42.682;23.372;2023-03-24T00:42:40;15.32;;;9.57;;
43710;SDS011;29309;42.682;23.372;2023-03-24T00:45:10;18.20;;;10.23;;
43710;SDS011;29309;42.682;23.372;2023-03-24T00:47:37;16.20;;;9.25;;
43710;SDS011;29309;42.682;23.372;2023-03-24T00:50:03;19.40;;;9.85;;
43710;SDS011;29309;42.682;23.372;2023-03-24T00:52:31;18.75;;;9.77;;
43710;SDS011;29309;42.682;23.372;2023-03-24T00:54:58;17.65;;;10.13;;
43710;SDS011;29309;42.682;23.372;2023-03-24T00:57:26;15.50;;;9.13;;
43710;SDS011;29309;42.682;23.372;2023-03-24T00:59:54;22.50;;;10.52;;
43710;SDS011;29309;42.682;23.372;2023-03-24T01:02:21;19.85;;;11.32;;
43710;SDS011;29309;42.682;23.372;2023-03-24T01:04:55;16.60;;;8.95;;
43710;SDS011;29309;42.682;23.372;2023-03-24T01:07:23;23.50;;;10.32;;
43710;SDS011;29309;42.682;23.372;2023-03-24T01:09:50;16.20;;;10.27;;
43710;SDS011;29309;42.682;23.372;2023-03-24T01:12:25;18.02;;;10.10;;
43710;SDS011;29309;42.682;23.372;2023-03-24T01:14:53;25.50;;;10.48;;
43710;SDS011;29309;42.682;23.372;2023-03-24T01:17:19;18.92;;;10.02;;
43710;SDS011;29309;42.682;23.372;2023-03-24T01:19:50;18.55;;;10.05;;
43710;SDS011;29309;42.682;23.372;2023-03-24T01:22:18;22.20;;;10.98;;
43710;SDS011;29309;42.682;23.372;2023-03-24T01:24:48;22.20;;;11.38;;
43710;SDS011;29309;42.682;23.372;2023-03-24T01:27:14;17.70;;;10.60;;
43710;SDS011;29309;42.682;23.372;2023-03-24T01:29:40;19.55;;;11.27;;
43710;SDS011;29309;42.682;23.372;2023-03-24T01:32:06;18.73;;;11.70;;
43710;SDS011;29309;42.682;23.372;2023-03-24T01:34:33;18.67;;;11.55;;
43710;SDS011;29309;42.682;23.372;2023-03-24T01:37:00;19.75;;;11.98;;
43710;SDS011;29309;42.682;23.372;2023-03-24T01:39:26;23.55;;;12.32;;
43710;SDS011;29309;42.682;23.372;2023-03-24T01:41:52;19.65;;;12.80;;
43710;SDS011;29309;42.682;23.372;2023-03-24T01:44:29;25.38;;;12.00;;
43710;SDS011;29309;42.682;23.372;2023-03-24T01:46:57;22.38;;;12.75;;
43710;SDS011;29309;42.682;23.372;2023-03-24T01:49:26;24.10;;;12.48;;
43710;SDS011;29309;42.682;23.372;2023-03-24T01:51:57;21.42;;;11.90;;
43710;SDS011;29309;42.682;23.372;2023-03-24T01:54:27;25.10;;;11.40;;
43710;SDS011;29309;42.682;23.372;2023-03-24T01:59:44;20.33;;;11.90;;
43710;SDS011;29309;42.682;23.372;2023-03-24T02:02:12;22.83;;;12.75;;
43710;SDS011;29309;42.682;23.372;2023-03-24T02:04:42;21.27;;;12.68;;
43710;SDS011;29309;42.682;23.372;2023-03-24T02:09:47;25.88;;;14.93;;
43710;SDS011;29309;42.682;23.372;2023-03-24T02:12:12;26.35;;;14.23;;
43710;SDS011;29309;42.682;23.372;2023-03-24T02:14:38;24.73;;;14.05;;
43710;SDS011;29309;42.682;23.372;2023-03-24T02:22:45;22.52;;;13.65;;
43710;SDS011;29309;42.682;23.372;2023-03-24T02:25:29;25.17;;;13.98;;
43710;SDS011;29309;42.682;23.372;2023-03-24T02:47:24;21.05;;;12.02;;
43710;SDS011;29309;42.682;23.372;2023-03-24T02:50:13;27.65;;;13.30;;
43710;SDS011;29309;42.682;23.372;2023-03-24T02:55:35;27.90;;;12.77;;
43710;SDS011;29309;42.682;23.372;2023-03-24T03:01:38;25.40;;;12.43;;
43710;SDS011;29309;42.682;23.372;2023-03-24T03:03:57;26.58;;;11.75;;
43710;SDS011;29309;42.682;23.372;2023-03-24T03:06:32;24.23;;;12.57;;
43710;SDS011;29309;42.682;23.372;2023-03-24T03:09:04;23.20;;;13.07;;
43710;SDS011;29309;42.682;23.372;2023-03-24T03:11:41;23.75;;;12.73;;
43710;SDS011;29309;42.682;23.372;2023-03-24T03:14:14;23.25;;;12.02;;
43710;SDS011;29309;42.682;23.372;2023-03-24T03:16:50;24.20;;;13.18;;
43710;SDS011;29309;42.682;23.372;2023-03-24T03:19:29;28.13;;;13.35;;
43710;SDS011;29309;42.682;23.372;2023-03-24T03:21:57;24.55;;;12.88;;
43710;SDS011;29309;42.682;23.372;2023-03-24T03:24:57;24.23;;;13.18;;
43710;SDS011;29309;42.682;23.372;2023-03-24T03:27:51;29.20;;;13.25;;
43710;SDS011;29309;42.682;23.372;2023-03-24T03:32:50;23.23;;;13.20;;
43710;SDS011;29309;42.682;23.372;2023-03-24T03:35:24;27.20;;;14.15;;
43710;SDS011;29309;42.682;23.372;2023-03-24T03:43:15;20.48;;;12.32;;
43710;SDS011;29309;42.682;23.372;2023-03-24T03:45:41;26.58;;;13.75;;
43710;SDS011;29309;42.682;23.372;2023-03-24T03:48:06;26.67;;;13.77;;
43710;SDS011;29309;42.682;23.372;2023-03-24T03:50:32;30.35;;;16.25;;
43710;SDS011;29309;42.682;23.372;2023-03-24T03:52:58;31.50;;;16.95;;
43710;SDS011;29309;42.682;23.372;2023-03-24T03:55:25;35.88;;;17.70;;
43710;SDS011;29309;42.682;23.372;2023-03-24T03:57:51;32.30;;;16.85;;
43710;SDS011;29309;42.682;23.372;2023-03-24T04:00:18;29.23;;;16.52;;
43710;SDS011;29309;42.682;23.372;2023-03-24T04:02:56;33.40;;;15.65;;
43710;SDS011;29309;42.682;23.372;2023-03-24T04:28:02;32.75;;;18.05;;
43710;SDS011;29309;42.682;23.372;2023-03-24T04:30:42;34.90;;;18.58;;
43710;SDS011;29309;42.682;23.372;2023-03-24T04:38:40;32.85;;;17.40;;
43710;SDS011;29309;42.682;23.372;2023-03-24T04:41:09;34.08;;;18.52;;
43710;SDS011;29309;42.682;23.372;2023-03-24T04:43:36;31.75;;;17.05;;
43710;SDS011;29309;42.682;23.372;2023-03-24T04:46:03;38.17;;;17.05;;
43710;SDS011;29309;42.682;23.372;2023-03-24T04:48:30;43.25;;;17.52;;
43710;SDS011;29309;42.682;23.372;2023-03-24T04:50:56;30.00;;;17.33;;
43710;SDS011;29309;42.682;23.372;2023-03-24T04:53:25;18.08;;;10.75;;
43710;SDS011;29309;42.682;23.372;2023-03-24T04:58:41;16.65;;;9.38;;
43710;SDS011;29309;42.682;23.372;2023-03-24T05:01:07;17.30;;;9.52;;
43710;SDS011;29309;42.682;23.372;2023-03-24T05:03:33;18.77;;;8.20;;
43710;SDS011;29309;42.682;23.372;2023-03-24T05:06:02;13.85;;;8.40;;
43710;SDS011;29309;42.682;23.372;2023-03-24T05:08:29;15.50;;;7.85;;
43710;SDS011;29309;42.682;23.372;2023-03-24T05:10:55;22.05;;;9.95;;
43710;SDS011;29309;42.682;23.372;2023-03-24T05:13:21;23.35;;;11.90;;
43710;SDS011;29309;42.682;23.372;2023-03-24T05:15:46;25.83;;;13.75;;
43710;SDS011;29309;42.682;23.372;2023-03-24T05:18:12;24.27;;;13.15;;
43710;SDS011;29309;42.682;23.372;2023-03-24T05:20:37;28.55;;;13.90;;
43710;SDS011;29309;42.682;23.372;2023-03-24T05:23:03;27.20;;;13.43;;
43710;SDS011;29309;42.682;23.372;2023-03-24T05:25:28;22.95;;;11.95;;
43710;SDS011;29309;42.682;23.372;2023-03-24T05:27:54;24.25;;;12.38;;
43710;SDS011;29309;42.682;23.372;2023-03-24T05:30:20;22.00;;;12.18;;
43710;SDS011;29309;42.682;23.372;2023-03-24T05:32:45;19.83;;;10.82;;
43710;SDS011;29309;42.682;23.372;2023-03-24T05:35:11;23.75;;;9.85;;
43710;SDS011;29309;42.682;23.372;2023-03-24T05:37:36;18.38;;;8.35;;
43710;SDS011;29309;42.682;23.372;2023-03-24T05:40:08;19.65;;;8.27;;
43710;SDS011;29309;42.682;23.372;2023-03-24T05:42:34;14.55;;;9.35;;
43710;SDS011;29309;42.682;23.372;2023-03-24T05:45:00;16.95;;;8.63;;
43710;SDS011;29309;42.682;23.372;2023-03-24T05:47:26;14.52;;;8.10;;
43710;SDS011;29309;42.682;23.372;2023-03-24T05:49:51;14.88;;;8.10;;
43710;SDS011;29309;42.682;23.372;2023-03-24T05:52:17;13.00;;;8.18;;
43710;SDS011;29309;42.682;23.372;2023-03-24T05:54:44;12.40;;;7.85;;
43710;SDS011;29309;42.682;23.372;2023-03-24T05:57:11;21.42;;;8.98;;
43710;SDS011;29309;42.682;23.372;2023-03-24T05:59:39;18.38;;;8.27;;
43710;SDS011;29309;42.682;23.372;2023-03-24T06:02:05;16.10;;;9.13;;
43710;SDS011;29309;42.682;23.372;2023-03-24T06:04:31;16.17;;;8.57;;
43710;SDS011;29309;42.682;23.372;2023-03-24T06:07:00;19.05;;;8.93;;
43710;SDS011;29309;42.682;23.372;2023-03-24T06:09:27;17.38;;;8.60;;
43710;SDS011;29309;42.682;23.372;2023-03-24T06:12:06;24.65;;;8.43;;
43710;SDS011;29309;42.682;23.372;2023-03-24T06:14:33;13.75;;;9.13;;
43710;SDS011;29309;42.682;23.372;2023-03-24T06:16:58;20.33;;;8.85;;
43710;SDS011;29309;42.682;23.372;2023-03-24T06:19:25;14.02;;;8.40;;
43710;SDS011;29309;42.682;23.372;2023-03-24T06:21:51;19.42;;;9.80;;
43710;SDS011;29309;42.682;23.372;2023-03-24T06:24:17;16.25;;;9.20;;
43710;SDS011;29309;42.682;23.372;2023-03-24T06:26:43;17.45;;;8.73;;
43710;SDS011;29309;42.682;23.372;2023-03-24T06:29:09;20.42;;;9.18;;
43710;SDS011;29309;42.682;23.372;2023-03-24T06:31:36;19.27;;;9.05;;
43710;SDS011;29309;42.682;23.372;2023-03-24T06:34:03;18.40;;;9.77;;
43710;SDS011;29309;42.682;23.372;2023-03-24T06:36:29;16.55;;;9.25;;
43710;SDS011;29309;42.682;23.372;2023-03-24T06:38:55;14.38;;;9.95;;
43710;SDS011;29309;42.682;23.372;2023-03-24T06:41:20;20.52;;;9.40;;
43710;SDS011;29309;42.682;23.372;2023-03-24T06:43:46;18.48;;;11.00;;
43710;SDS011;29309;42.682;23.372;2023-03-24T06:46:12;16.20;;;11.10;;
43710;SDS011;29309;42.682;23.372;2023-03-24T06:48:37;22.35;;;11.55;;
43710;SDS011;29309;42.682;23.372;2023-03-24T06:51:03;25.17;;;10.88;;
43710;SDS011;29309;42.682;23.372;2023-03-24T06:53:29;20.77;;;11.30;;
43710;SDS011;29309;42.682;23.372;2023-03-24T06:55:55;19.63;;;11.40;;
43710;SDS011;29309;42.682;23.372;2023-03-24T06:58:20;18.92;;;11.90;;
43710;SDS011;29309;42.682;23.372;2023-03-24T07:00:46;31.15;;;13.98;;
43710;SDS011;29309;42.682;23.372;2023-03-24T07:03:13;16.77;;;11.75;;
43710;SDS011;29309;42.682;23.372;2023-03-24T07:05:39;22.85;;;11.82;;
43710;SDS011;29309;42.682;23.372;2023-03-24T07:08:07;26.27;;;13.82;;
43710;SDS011;29309;42.682;23.372;2023-03-24T07:10:33;23.08;;;12.52;;
43710;SDS011;29309;42.682;23.372;2023-03-24T07:13:00;19.15;;;13.20;;
43710;SDS011;29309;42.682;23.372;2023-03-24T07:15:27;22.88;;;12.45;;
43710;SDS011;29309;42.682;23.372;2023-03-24T07:17:53;21.77;;;14.02;;
43710;SDS011;29309;42.682;23.372;2023-03-24T07:20:18;23.88;;;13.93;;
43710;SDS011;29309;42.682;23.372;2023-03-24T07:22:44;22.50;;;13.73;;
43710;SDS011;29309;42.682;23.372;2023-03-24T07:25:10;22.60;;;13.60;;
43710;SDS011;29309;42.682;23.372;2023-03-24T07:27:38;20.17;;;13.63;;
43710;SDS011;29309;42.682;23.372;2023-03-24T07:30:04;21.65;;;13.07;;
43710;SDS011;29309;42.682;23.372;2023-03-24T07:32:31;24.80;;;14.77;;
43710;SDS011;29309;42.682;23.372;2023-03-24T07:34:59;21.92;;;13.63;;
43710;SDS011;29309;42.682;23.372;2023-03-24T07:37:26;21.67;;;12.63;;
43710;SDS011;29309;42.682;23.372;2023-03-24T07:40:02;26.75;;;13.65;;
43710;SDS011;29309;42.682;23.372;2023-03-24T07:42:41;18.65;;;12.45;;
43710;SDS011;29309;42.682;23.372;2023-03-24T07:45:08;21.60;;;12.45;;
43710;SDS011;29309;42.682;23.372;2023-03-24T07:47:35;17.60;;;12.98;;
43710;SDS011;29309;42.682;23.372;2023-03-24T07:50:07;22.08;;;13.80;;
43710;SDS011;29309;42.682;23.372;2023-03-24T07:52:38;20.33;;;12.70;;
43710;SDS011;29309;42.682;23.372;2023-03-24T07:55:05;25.27;;;12.98;;
43710;SDS011;29309;42.682;23.372;2023-03-24T07:57:40;21.20;;;12.50;;
43710;SDS011;29309;42.682;23.372;2023-03-24T08:00:07;23.63;;;13.82;;
43710;SDS011;29309;42.682;23.372;2023-03-24T08:02:42;24.65;;;13.15;;
43710;SDS011;29309;42.682;23.372;2023-03-24T08:05:12;21.90;;;14.85;;
43710;SDS011;29309;42.682;23.372;2023-03-24T08:07:39;34.15;;;14.20;;
43710;SDS011;29309;42.682;23.372;2023-03-24T08:10:07;21.52;;;13.48;;
43710;SDS011;29309;42.682;23.372;2023-03-24T08:12:37;19.73;;;13.88;;
43710;SDS011;29309;42.682;23.372;2023-03-24T08:15:03;25.20;;;13.85;;
43710;SDS011;29309;42.682;23.372;2023-03-24T08:17:30;21.48;;;13.25;;
43710;SDS011;29309;42.682;23.372;2023-03-24T08:19:56;21.27;;;12.15;;
43710;SDS011;29309;42.682;23.372;2023-03-24T08:22:21;23.63;;;14.98;;
43710;SDS011;29309;42.682;23.372;2023-03-24T08:24:47;20.40;;;14.48;;
43710;SDS011;29309;42.682;23.372;2023-03-24T08:27:12;22.25;;;13.02;;
43710;SDS011;29309;42.682;23.372;2023-03-24T08:29:37;28.38;;;15.05;;
43710;SDS011;29309;42.682;23.372;2023-03-24T08:32:03;22.70;;;14.02;;
43710;SDS011;29309;42.682;23.372;2023-03-24T08:34:29;20.45;;;12.93;;
43710;SDS011;29309;42.682;23.372;2023-03-24T08:36:57;22.20;;;14.15;;
43710;SDS011;29309;42.682;23.372;2023-03-24T08:39:22;26.65;;;13.80;;
43710;SDS011;29309;42.682;23.372;2023-03-24T08:41:48;21.40;;;14.80;;
43710;SDS011;29309;42.682;23.372;2023-03-24T08:44:14;24.30;;;15.13;;
43710;SDS011;29309;42.682;23.372;2023-03-24T08:46:39;24.35;;;13.88;;
43710;SDS011;29309;42.682;23.372;2023-03-24T08:49:05;25.15;;;14.35;;
43710;SDS011;29309;42.682;23.372;2023-03-24T08:51:30;20.33;;;13.98;;
43710;SDS011;29309;42.682;23.372;2023-03-24T08:53:57;23.75;;;14.68;;
43710;SDS011;29309;42.682;23.372;2023-03-24T08:56:22;21.63;;;14.63;;
43710;SDS011;29309;42.682;23.372;2023-03-24T08:58:48;22.75;;;12.10;;
43710;SDS011;29309;42.682;23.372;2023-03-24T09:01:18;24.40;;;13.20;;
43710;SDS011;29309;42.682;23.372;2023-03-24T09:03:44;22.48;;;13.10;;
43710;SDS011;29309;42.682;23.372;2023-03-24T09:06:10;24.98;;;11.73;;
43710;SDS011;29309;42.682;23.372;2023-03-24T09:08:36;19.92;;;12.50;;
43710;SDS011;29309;42.682;23.372;2023-03-24T09:11:02;19.77;;;11.32;;
43710;SDS011;29309;42.682;23.372;2023-03-24T09:13:29;18.10;;;12.30;;
43710;SDS011;29309;42.682;23.372;2023-03-24T09:16:01;19.23;;;11.45;;
43710;SDS011;29309;42.682;23.372;2023-03-24T09:18:27;22.83;;;13.30;;
43710;SDS011;29309;42.682;23.372;2023-03-24T09:20:54;20.40;;;12.32;;
43710;SDS011;29309;42.682;23.372;2023-03-24T09:23:20;24.55;;;14.02;;
43710;SDS011;29309;42.682;23.372;2023-03-24T09:25:49;22.90;;;12.75;;
43710;SDS011;29309;42.682;23.372;2023-03-24T09:28:16;25.52;;;13.13;;
43710;SDS011;29309;42.682;23.372;2023-03-24T09:30:41;23.92;;;13.88;;
43710;SDS011;29309;42.682;23.372;2023-03-24T09:33:07;22.52;;;12.57;;
43710;SDS011;29309;42.682;23.372;2023-03-24T09:35:36;20.63;;;13.30;;
43710;SDS011;29309;42.682;23.372;2023-03-24T09:38:08;18.88;;;12.57;;
43710;SDS011;29309;42.682;23.372;2023-03-24T09:40:37;24.63;;;13.80;;
43710;SDS011;29309;42.682;23.372;2023-03-24T09:45:49;29.98;;;12.68;;
43710;SDS011;29309;42.682;23.372;2023-03-24T09:48:29;22.88;;;13.18;;
43710;SDS011;29309;42.682;23.372;2023-03-24T09:50:56;25.23;;;13.43;;
43710;SDS011;29309;42.682;23.372;2023-03-24T09:55:56;26.88;;;14.40;;
43710;SDS011;29309;42.682;23.372;2023-03-24T09:58:35;28.92;;;13.43;;
43710;SDS011;29309;42.682;23.372;2023-03-24T10:01:00;17.58;;;11.50;;
43710;SDS011;29309;42.682;23.372;2023-03-24T10:03:26;18.90;;;11.00;;
43710;SDS011;29309;42.682;23.372;2023-03-24T10:08:31;18.98;;;11.98;;
43710;SDS011;29309;42.682;23.372;2023-03-24T10:16:31;19.27;;;12.40;;
43710;SDS011;29309;42.682;23.372;2023-03-24T10:21:53;21.90;;;11.45;;
43710;SDS011;29309;42.682;23.372;2023-03-24T10:24:30;18.23;;;11.60;;
43710;SDS011;29309;42.682;23.372;2023-03-24T10:30:15;18.00;;;10.68;;
43710;SDS011;29309;42.682;23.372;2023-03-24T10:32:43;14.90;;;9.98;;
43710;SDS011;29309;42.682;23.372;2023-03-24T10:35:29;26.30;;;9.02;;
43710;SDS011;29309;42.682;23.372;2023-03-24T10:40:30;14.48;;;8.73;;
43710;SDS011;29309;42.682;23.372;2023-03-24T10:42:57;20.83;;;9.15;;
43710;SDS011;29309;42.682;23.372;2023-03-24T10:45:26;16.85;;;8.15;;
43710;SDS011;29309;42.682;23.372;2023-03-24T10:47:56;11.50;;;8.02;;
43710;SDS011;29309;42.682;23.372;2023-03-24T10:50:26;15.82;;;9.57;;
43710;SDS011;29309;42.682;23.372;2023-03-24T10:52:52;17.17;;;9.85;;
43710;SDS011;29309;42.682;23.372;2023-03-24T10:55:19;16.25;;;9.25;;
43710;SDS011;29309;42.682;23.372;2023-03-24T10:57:54;12.18;;;7.72;;
43710;SDS011;29309;42.682;23.372;2023-03-24T11:00:23;10.48;;;6.95;;
43710;SDS011;29309;42.682;23.372;2023-03-24T11:03:04;15.50;;;7.53;;
43710;SDS011;29309;42.682;23.372;2023-03-24T11:05:33;11.70;;;7.32;;
43710;SDS011;29309;42.682;23.372;2023-03-24T11:11:28;12.88;;;6.97;;
43710;SDS011;29309;42.682;23.372;2023-03-24T11:13:56;13.40;;;7.40;;
43710;SDS011;29309;42.682;23.372;2023-03-24T11:16:29;12.30;;;8.20;;
43710;SDS011;29309;42.682;23.372;2023-03-24T11:19:00;14.13;;;7.63;;
43710;SDS011;29309;42.682;23.372;2023-03-24T11:21:28;18.15;;;8.40;;
43710;SDS011;29309;42.682;23.372;2023-03-24T11:23:58;13.32;;;7.57;;
43710;SDS011;29309;42.682;23.372;2023-03-24T11:26:32;11.85;;;7.57;;
43710;SDS011;29309;42.682;23.372;2023-03-24T11:29:18;12.25;;;6.80;;
43710;SDS011;29309;42.682;23.372;2023-03-24T11:34:23;19.85;;;6.30;;
43710;SDS011;29309;42.682;23.372;2023-03-24T11:39:40;11.35;;;6.75;;
43710;SDS011;29309;42.682;23.372;2023-03-24T11:49:42;14.68;;;4.65;;
43710;SDS011;29309;42.682;23.372;2023-03-24T11:52:28;11.18;;;5.00;;
43710;SDS011;29309;42.682;23.372;2023-03-24T11:54:58;5.88;;;4.65;;
43710;SDS011;29309;42.682;23.372;2023-03-24T11:57:39;7.50;;;4.40;;
43710;SDS011;29309;42.682;23.372;2023-03-24T12:02:59;11.07;;;5.53;;
43710;SDS011;29309;42.682;23.372;2023-03-24T12:05:40;9.15;;;4.80;;
43710;SDS011;29309;42.682;23.372;2023-03-24T12:15:52;7.50;;;5.00;;
43710;SDS011;29309;42.682;23.372;2023-03-24T12:18:48;7.90;;;5.10;;
43710;SDS011;29309;42.682;23.372;2023-03-24T12:22:14;12.13;;;4.75;;
43710;SDS011;29309;42.682;23.372;2023-03-24T12:24:45;11.50;;;4.90;;
43710;SDS011;29309;42.682;23.372;2023-03-24T12:27:20;6.95;;;4.47;;
43710;SDS011;29309;42.682;23.372;2023-03-24T12:29:51;11.48;;;4.22;;
43710;SDS011;29309;42.682;23.372;2023-03-24T12:41:14;5.72;;;3.33;;
43710;SDS011;29309;42.682;23.372;2023-03-24T12:44:14;7.18;;;3.60;;
43710;SDS011;29309;42.682;23.372;2023-03-24T12:55:02;6.10;;;2.97;;
43710;SDS011;29309;42.682;23.372;2023-03-24T13:00:03;5.65;;;3.00;;
43710;SDS011;29309;42.682;23.372;2023-03-24T13:02:41;7.65;;;3.55;;
43710;SDS011;29309;42.682;23.372;2023-03-24T13:05:32;9.07;;;3.47;;
43710;SDS011;29309;42.682;23.372;2023-03-24T13:08:05;8.43;;;2.70;;
43710;SDS011;29309;42.682;23.372;2023-03-24T13:10:40;3.72;;;2.35;;
43710;SDS011;29309;42.682;23.372;2023-03-24T13:15:49;5.45;;;2.80;;
43710;SDS011;29309;42.682;23.372;2023-03-24T13:26:32;17.77;;;2.90;;
43710;SDS011;29309;42.682;23.372;2023-03-24T13:37:32;6.15;;;2.65;;
43710;SDS011;29309;42.682;23.372;2023-03-24T13:40:09;5.15;;;2.58;;
43710;SDS011;29309;42.682;23.372;2023-03-24T13:42:47;2.95;;;1.90;;
43710;SDS011;29309;42.682;23.372;2023-03-24T13:45:21;10.38;;;2.72;;
43710;SDS011;29309;42.682;23.372;2023-03-24T13:53:18;5.15;;;2.67;;
43710;SDS011;29309;42.682;23.372;2023-03-24T13:56:09;4.25;;;2.10;;
43710;SDS011;29309;42.682;23.372;2023-03-24T13:58:48;8.88;;;2.17;;
43710;SDS011;29309;42.682;23.372;2023-03-24T14:01:31;4.18;;;2.40;;
43710;SDS011;29309;42.682;23.372;2023-03-24T14:04:20;9.25;;;2.45;;
43710;SDS011;29309;42.682;23.372;2023-03-24T14:06:53;5.80;;;2.05;;
43710;SDS011;29309;42.682;23.372;2023-03-24T14:09:22;6.32;;;2.45;;
43710;SDS011;29309;42.682;23.372;2023-03-24T14:14:20;5.70;;;2.00;;
43710;SDS011;29309;42.682;23.372;2023-03-24T14:19:35;4.05;;;1.67;;
43710;SDS011;29309;42.682;23.372;2023-03-24T14:24:37;5.30;;;2.30;;
43710;SDS011;29309;42.682;23.372;2023-03-24T14:27:47;4.90;;;2.33;;
43710;SDS011;29309;42.682;23.372;2023-03-24T14:30:21;10.15;;;2.50;;
43710;SDS011;29309;42.682;23.372;2023-03-24T14:32:55;6.65;;;2.40;;
43710;SDS011;29309;42.682;23.372;2023-03-24T14:35:29;5.07;;;2.33;;
43710;SDS011;29309;42.682;23.372;2023-03-24T14:37:58;7.50;;;2.20;;
43710;SDS011;29309;42.682;23.372;2023-03-24T14:40:34;4.57;;;2.08;;
43710;SDS011;29309;42.682;23.372;2023-03-24T14:48:20;6.93;;;1.80;;
43710;SDS011;29309;42.682;23.372;2023-03-24T14:50:51;5.85;;;2.17;;
43710;SDS011;29309;42.682;23.372;2023-03-24T14:53:18;5.20;;;2.40;;
43710;SDS011;29309;42.682;23.372;2023-03-24T14:55:46;3.25;;;1.90;;
43710;SDS011;29309;42.682;23.372;2023-03-24T14:58:54;4.07;;;2.58;;
43710;SDS011;29309;42.682;23.372;2023-03-24T15:01:03;5.40;;;2.30;;
43710;SDS011;29309;42.682;23.372;2023-03-24T15:03:41;9.68;;;2.60;;
43710;SDS011;29309;42.682;23.372;2023-03-24T15:06:20;2.85;;;2.05;;
43710;SDS011;29309;42.682;23.372;2023-03-24T15:08:57;4.38;;;2.20;;
43710;SDS011;29309;42.682;23.372;2023-03-24T15:11:32;10.02;;;1.90;;
43710;SDS011;29309;42.682;23.372;2023-03-24T15:14:00;5.90;;;2.20;;
43710;SDS011;29309;42.682;23.372;2023-03-24T15:16:31;8.30;;;3.53;;
43710;SDS011;29309;42.682;23.372;2023-03-24T15:19:02;6.97;;;2.50;;
43710;SDS011;29309;42.682;23.372;2023-03-24T15:21:40;15.27;;;5.30;;
43710;SDS011;29309;42.682;23.372;2023-03-24T15:26:46;7.15;;;3.92;;
43710;SDS011;29309;42.682;23.372;2023-03-24T15:29:16;7.65;;;2.95;;
43710;SDS011;29309;42.682;23.372;2023-03-24T15:31:42;7.90;;;3.00;;
43710;SDS011;29309;42.682;23.372;2023-03-24T15:36:59;11.23;;;2.55;;
43710;SDS011;29309;42.682;23.372;2023-03-24T15:39:28;9.23;;;2.40;;
43710;SDS011;29309;42.682;23.372;2023-03-24T15:41:58;7.43;;;3.20;;
43710;SDS011;29309;42.682;23.372;2023-03-24T15:44:27;10.75;;;3.67;;
43710;SDS011;29309;42.682;23.372;2023-03-24T15:46:58;6.57;;;3.20;;
43710;SDS011;29309;42.682;23.372;2023-03-24T15:49:33;10.15;;;3.10;;
43710;SDS011;29309;42.682;23.372;2023-03-24T15:52:24;8.07;;;3.47;;
43710;SDS011;29309;42.682;23.372;2023-03-24T15:54:57;7.78;;;3.22;;
43710;SDS011;29309;42.682;23.372;2023-03-24T15:57:25;9.23;;;3.75;;
43710;SDS011;29309;42.682;23.372;2023-03-24T15:59:55;13.98;;;3.35;;
43710;SDS011;29309;42.682;23.372;2023-03-24T16:02:48;8.43;;;3.30;;
43710;SDS011;29309;42.682;23.372;2023-03-24T16:05:29;15.18;;;4.55;;
43710;SDS011;29309;42.682;23.372;2023-03-24T16:08:00;19.00;;;3.90;;
43710;SDS011;29309;42.682;23.372;2023-03-24T16:10:35;9.93;;;3.63;;
43710;SDS011;29309;42.682;23.372;2023-03-24T16:13:19;11.00;;;3.92;;
43710;SDS011;29309;42.682;23.372;2023-03-24T16:15:59;16.75;;;4.20;;
43710;SDS011;29309;42.682;23.372;2023-03-24T16:18:27;9.40;;;3.15;;
43710;SDS011;29309;42.682;23.372;2023-03-24T16:21:02;8.38;;;3.75;;
43710;SDS011;29309;42.682;23.372;2023-03-24T16:23:35;8.18;;;4.10;;
43710;SDS011;29309;42.682;23.372;2023-03-24T16:26:01;10.95;;;4.10;;
43710;SDS011;29309;42.682;23.372;2023-03-24T16:28:26;15.93;;;5.03;;
43710;SDS011;29309;42.682;23.372;2023-03-24T16:31:02;11.10;;;3.97;;
43710;SDS011;29309;42.682;23.372;2023-03-24T16:33:28;14.73;;;3.67;;
43710;SDS011;29309;42.682;23.372;2023-03-24T16:35:54;9.40;;;4.50;;
43710;SDS011;29309;42.682;23.372;2023-03-24T16:38:20;14.35;;;3.88;;
43710;SDS011;29309;42.682;23.372;2023-03-24T16:40:50;10.27;;;3.38;;
43710;SDS011;29309;42.682;23.372;2023-03-24T16:43:16;13.40;;;4.35;;
43710;SDS011;29309;42.682;23.372;2023-03-24T16:45:44;11.68;;;3.75;;
43710;SDS011;29309;42.682;23.372;2023-03-24T16:48:11;11.43;;;3.25;;
43710;SDS011;29309;42.682;23.372;2023-03-24T16:50:37;6.13;;;3.38;;
43710;SDS011;29309;42.682;23.372;2023-03-24T16:53:05;25.00;;;4.70;;
43710;SDS011;29309;42.682;23.372;2023-03-24T16:55:35;11.95;;;4.35;;
43710;SDS011;29309;42.682;23.372;2023-03-24T16:58:02;16.38;;;5.05;;
43710;SDS011;29309;42.682;23.372;2023-03-24T17:00:28;12.65;;;3.90;;
43710;SDS011;29309;42.682;23.372;2023-03-24T17:02:54;15.32;;;5.10;;
43710;SDS011;29309;42.682;23.372;2023-03-24T17:05:45;19.63;;;4.55;;
43710;SDS011;29309;42.682;23.372;2023-03-24T17:08:11;10.05;;;4.03;;
43710;SDS011;29309;42.682;23.372;2023-03-24T17:10:36;10.63;;;3.90;;
43710;SDS011;29309;42.682;23.372;2023-03-24T17:13:04;10.32;;;4.40;;
43710;SDS011;29309;42.682;23.372;2023-03-24T17:15:30;17.20;;;3.70;;
43710;SDS011;29309;42.682;23.372;2023-03-24T17:17:57;18.05;;;3.65;;
43710;SDS011;29309;42.682;23.372;2023-03-24T17:20:23;10.30;;;3.88;;
43710;SDS011;29309;42.682;23.372;2023-03-24T17:22:49;15.25;;;5.30;;
43710;SDS011;29309;42.682;23.372;2023-03-24T17:25:18;19.42;;;5.53;;
43710;SDS011;29309;42.682;23.372;2023-03-24T17:27:48;12.63;;;5.22;;
43710;SDS011;29309;42.682;23.372;2023-03-24T17:30:15;12.48;;;6.18;;
43710;SDS011;29309;42.682;23.372;2023-03-24T17:32:42;16.65;;;6.82;;
43710;SDS011;29309;42.682;23.372;2023-03-24T17:35:09;24.02;;;11.60;;
43710;SDS011;29309;42.682;23.372;2023-03-24T17:37:36;40.00;;;17.23;;
43710;SDS011;29309;42.682;23.372;2023-03-24T17:40:02;38.67;;;19.92;;
43710;SDS011;29309;42.682;23.372;2023-03-24T17:42:33;27.65;;;13.02;;